Terminal Aerodrome Forecast
Issued by NWS Shreveport, LA

Home | Current Version | Previous Version | Text Only | Print | Product List | Glossary On
Versions: 1 2 3 4 5 6 7 8 9 10 11 12 13 14 15 16 17 18 19
000
FTUS44 KSHV 071019 AAB
TAFTYR
TAF AMD
KTYR 071019Z 0710/0806 18010KT P6SM SCT025 OVC250
      TEMPO 0710/0712 6SM BR BKN015 OVC025
     FM071200 17010KT 6SM BR BKN008 OVC015
     FM071400 18015G18KT P6SM BKN020
     FM071600 18015G22KT P6SM SCT035 SCT250
     FM080000 16010KT P6SM SCT250=

USA.gov is the U.S. government's official web portal to all federal, state and local government web resources and services.